map of RAC home
RAC - Airport
Location
City:  Racine, Wisconsin, United States
Name:Batten International Airport
ICAO:KRAC
IATA:RAC
FAA LID:RAC

Details
Type:Airport (Airfield)
Use:Public/Civil, International (customs port of entry)
Latitude:4245'40"N (42.761167)
Longitude:8748'50"W (-87.813916)
Datum:WGS 1984
Elevation:673 ft (205 m)
Variation:3.92W (WMM2015v2 magnetic declination)
-0.03 annual change
Runways:2
Longest:6574 × 100 ft (2004 × 30.5 m), paved

Time
Time Zone:UTC-6 (DST-5)
Local Time:

Weather
METAR:KRAC 041353Z AUTO 20009KT 10SM SCT033 BKN044 OVC095 07/06 A2965 RMK AO2 SLP043 T00720056

Related Locations
Nearby:
Farthest:YAUG: 11073 mi / 17819 km
Augusta [Augusta Airport], WA, AU

Find:

   beyond  
but within

Other Information
Maps:
NOTAMs:
Links:
Sources:

  
  • flag of United States
  • flag of Wisconsin
  

Sectional Chart

Flight Planning
at skyvector.com

Satellite Image

Google Maps Satellite view

 

Copyright © 2004-2019 Karl L. Swartz. All rights reserved.
The Great Circle Mapper name and logo are trademarks of the Great Circle Mapper.
All other trademarks mentioned herein belong to their respective owners.
Please see credits for attibutions and further copyright information.

  Follow gcmap on Facebook Follow gcmap on Twitter GCmap on LinkedIn

hCard Microformat

Geo Microformat